Time,TemperatureF,DewpointF,PressureIn,WindDirection,WindDirectionDegrees,WindSpeedMPH,WindSpeedGustMPH,Humidity,HourlyPrecipIn,Conditions,Clouds,dailyrainin,SolarRadiationWatts/m^2,SoftwareType,DateUTC
2013-09-05 00:00:00,62.5,60.1,29.90,West,273,0.0,0.0,92,0.00,RA,,0.00,0.0,WeatherDisplay:10.37,2013-09-05 04:00:00,
2013-09-05 00:01:00,62.5,60.1,29.90,West,273,0.0,0.0,92,0.00,RA,,0.00,0.0,WeatherDisplay:10.37,2013-09-05 04:01:00,
2013-09-05 00:02:00,62.5,60.1,29.90,West,273,0.0,0.0,92,0.00,RA,,0.00,0.0,WeatherDisplay:10.37,2013-09-05 04:02:00,
2013-09-05 00:03:00,62.5,60.1,29.90,West,273,0.0,0.0,92,0.00,RA,,0.00,0.0,WeatherDisplay:10.37,2013-09-05 04:03:00,
2013-09-05 00:07:00,62.3,60.2,29.90,West,273,0.0,0.0,93,0.00,RA,,0.00,0.0,WeatherDisplay:10.37,2013-09-05 04:07:00,
2013-09-05 00:12:00,62.1,60.1,29.90,West,273,0.0,0.0,93,0.00,CLR,,0.00,0.0,WeatherDisplay:10.37,2013-09-05 04:12:00,
2013-09-05 00:17:00,62.0,60.3,29.90,West,273,0.0,0.0,94,0.00,CLR,,0.00,0.0,WeatherDisplay:10.37,2013-09-05 04:17:00,
2013-09-05 00:21:00,61.9,60.2,29.90,West,273,0.0,0.0,94,0.00,CLR,,0.00,0.0,WeatherDisplay:10.37,2013-09-05 04:21:00,
2013-09-05 00:26:00,61.9,60.2,29.90,West,273,0.0,0.0,94,0.02,CLR,,0.00,0.0,WeatherDisplay:10.37,2013-09-05 04:26:00,
2013-09-05 00:31:00,61.9,60.5,29.90,West,273,0.0,0.0,95,0.01,CLR,,0.00,0.0,WeatherDisplay:10.37,2013-09-05 04:31:00,
2013-09-05 00:36:00,61.8,60.4,29.89,West,273,0.0,0.0,95,0.01,CLR,,0.00,0.0,WeatherDisplay:10.37,2013-09-05 04:36:00,
2013-09-05 00:41:00,61.8,60.4,29.90,West,273,0.0,0.0,95,0.00,CLR,,0.00,0.0,WeatherDisplay:10.37,2013-09-05 04:41:00,
2013-09-05 00:46:00,61.7,60.3,29.90,West,273,0.0,0.0,95,0.00,CLR,,0.00,0.0,WeatherDisplay:10.37,2013-09-05 04:46:00,
2013-09-05 00:51:00,61.7,60.5,29.89,West,273,0.0,0.0,96,0.00,CLR,,0.00,0.0,WeatherDisplay:10.37,2013-09-05 04:51:00,
2013-09-05 00:56:00,61.7,60.5,29.89,West,273,0.0,0.0,96,0.00,CLR,,0.00,0.0,WeatherDisplay:10.37,2013-09-05 04:56:00,
2013-09-05 01:01:00,61.7,60.5,29.89,West,273,0.0,0.0,96,0.00,CLR,,0.00,0.0,WeatherDisplay:10.37,2013-09-05 05:01:00,
2013-09-05 01:06:00,61.8,60.6,29.89,West,273,0.0,0.0,96,0.00,CLR,,0.00,0.0,WeatherDisplay:10.37,2013-09-05 05:06:00,
2013-09-05 01:11:00,61.7,60.5,29.89,West,273,0.0,0.0,96,0.00,CLR,,0.00,0.0,WeatherDisplay:10.37,2013-09-05 05:11:00,
2013-09-05 01:16:00,61.8,60.9,29.89,West,273,0.0,0.0,97,0.00,CLR,,0.00,0.0,WeatherDisplay:10.37,2013-09-05 05:16:00,
2013-09-05 01:21:00,61.8,60.9,29.89,West,273,0.0,0.0,97,0.00,CLR,,0.00,0.0,WeatherDisplay:10.37,2013-09-05 05:21:00,
2013-09-05 01:26:00,61.8,60.9,29.89,West,273,0.0,0.0,97,0.00,CLR,,0.00,0.0,WeatherDisplay:10.37,2013-09-05 05:26:00,
2013-09-05 01:31:00,61.8,60.9,29.89,West,273,0.0,0.0,97,0.01,RA,,0.01,0.0,WeatherDisplay:10.37,2013-09-05 05:31:00,
2013-09-05 01:36:00,61.9,61.0,29.89,West,273,0.0,0.0,97,0.01,RA,,0.01,0.0,WeatherDisplay:10.37,2013-09-05 05:36:00,
2013-09-05 01:41:00,62.0,61.1,29.88,West,273,0.0,0.0,97,0.01,,,0.01,0.0,WeatherDisplay:10.37,2013-09-05 05:41:00,
2013-09-05 01:46:00,62.1,60.9,29.88,West,273,0.0,0.0,96,0.01,CLR,,0.01,0.0,WeatherDisplay:10.37,2013-09-05 05:46:00,
2013-09-05 01:51:00,62.2,61.0,29.89,West,273,0.0,1.2,96,0.01,CLR,,0.01,0.0,WeatherDisplay:10.37,2013-09-05 05:51:00,
2013-09-05 01:56:00,62.3,61.1,29.89,NW,318,0.4,1.2,96,0.01,CLR,,0.01,0.0,WeatherDisplay:10.37,2013-09-05 05:56:00,
2013-09-05 02:01:00,62.4,61.2,29.88,NW,326,0.2,3.5,96,0.01,CLR,,0.01,0.0,WeatherDisplay:10.37,2013-09-05 06:01:00,
2013-09-05 02:06:00,62.5,61.3,29.88,North,355,0.1,3.5,96,0.01,CLR,,0.01,0.0,WeatherDisplay:10.37,2013-09-05 06:06:00,
2013-09-05 02:11:00,62.5,61.3,29.88,North,355,0.0,0.0,96,0.01,CLR,,0.01,0.0,WeatherDisplay:10.37,2013-09-05 06:11:00,
2013-09-05 02:16:00,62.5,61.6,29.88,WNW,298,0.7,2.3,97,0.01,CLR,,0.01,0.0,WeatherDisplay:10.37,2013-09-05 06:16:00,
2013-09-05 02:21:00,62.5,61.6,29.88,WNW,298,0.0,0.0,97,0.01,CLR,,0.01,0.0,WeatherDisplay:10.37,2013-09-05 06:21:00,
2013-09-05 02:26:00,62.5,61.3,29.88,WNW,297,2.0,4.6,96,0.01,CLR,,0.01,0.0,WeatherDisplay:10.37,2013-09-05 06:26:00,
2013-09-05 02:31:00,62.4,61.2,29.88,NW,313,2.0,4.6,96,0.00,CLR,,0.01,0.0,WeatherDisplay:10.37,2013-09-05 06:31:00,
2013-09-05 02:36:00,62.5,61.3,29.89,WNW,292,2.1,6.9,96,0.00,CLR,,0.01,0.0,WeatherDisplay:10.37,2013-09-05 06:36:00,
2013-09-05 02:41:00,62.6,61.4,29.89,WNW,289,0.8,3.5,96,0.00,CLR,,0.01,0.0,WeatherDisplay:10.37,2013-09-05 06:41:00,
2013-09-05 02:46:00,62.6,61.4,29.89,NW,314,0.5,2.3,96,0.00,CLR,,0.01,0.0,WeatherDisplay:10.37,2013-09-05 06:46:00,
2013-09-05 02:51:00,62.6,61.4,29.89,NNW,344,2.4,4.6,96,0.00,CLR,,0.01,0.0,WeatherDisplay:10.37,2013-09-05 06:51:00,
2013-09-05 02:56:00,62.6,61.1,29.89,WNW,286,3.0,6.9,95,0.00,CLR,,0.01,0.0,WeatherDisplay:10.37,2013-09-05 06:56:00,
2013-09-05 03:01:00,62.6,61.1,29.89,NW,313,1.4,4.6,95,0.00,CLR,,0.01,0.0,WeatherDisplay:10.37,2013-09-05 07:01:00,
2013-09-05 03:06:00,62.6,61.1,29.89,West,281,5.7,11.5,95,0.00,CLR,,0.01,0.0,WeatherDisplay:10.37,2013-09-05 07:06:00,
2013-09-05 03:11:00,62.6,61.1,29.88,NW,318,1.4,7.0,95,0.00,CLR,,0.01,0.0,WeatherDisplay:10.37,2013-09-05 07:11:00,
2013-09-05 03:16:00,62.4,60.9,29.88,NNW,327,2.7,6.9,95,0.00,CLR,,0.01,0.0,WeatherDisplay:10.37,2013-09-05 07:16:00,
2013-09-05 03:21:00,62.3,60.8,29.88,WNW,299,1.6,4.6,95,0.00,CLR,,0.01,0.0,WeatherDisplay:10.37,2013-09-05 07:21:00,
2013-09-05 03:26:00,62.1,60.7,29.89,WNW,302,3.3,9.0,95,0.00,CLR,,0.01,0.0,WeatherDisplay:10.37,2013-09-05 07:26:00,
2013-09-05 03:31:00,62.0,60.6,29.89,WNW,301,2.5,5.8,95,0.00,CLR,,0.01,0.0,WeatherDisplay:10.37,2013-09-05 07:31:00,
2013-09-05 03:36:00,61.9,60.5,29.89,North,5,0.4,3.5,95,0.00,CLR,,0.01,0.0,WeatherDisplay:10.37,2013-09-05 07:36:00,
2013-09-05 03:41:00,61.8,60.4,29.89,NW,310,3.9,6.0,95,0.00,CLR,,0.01,0.0,WeatherDisplay:10.37,2013-09-05 07:41:00,
2013-09-05 03:46:00,61.8,60.4,29.89,NW,317,4.5,7.0,95,0.00,CLR,,0.01,0.0,WeatherDisplay:10.37,2013-09-05 07:46:00,
2013-09-05 03:51:00,61.7,60.3,29.89,NW,322,3.1,6.9,95,0.00,CLR,,0.01,0.0,WeatherDisplay:10.37,2013-09-05 07:51:00,
2013-09-05 03:56:00,61.6,59.9,29.90,NNW,332,1.2,9.2,94,0.00,CLR,,0.01,0.0,WeatherDisplay:10.37,2013-09-05 07:56:00,
2013-09-05 04:01:00,61.3,59.6,29.90,WNW,290,3.8,7.0,94,0.00,CLR,,0.01,0.0,WeatherDisplay:10.37,2013-09-05 08:01:00,
2013-09-05 04:06:00,61.1,59.4,29.90,WNW,284,2.4,4.6,94,0.00,CLR,,0.01,0.0,WeatherDisplay:10.37,2013-09-05 08:06:00,
2013-09-05 04:11:00,60.9,59.2,29.90,WNW,289,4.8,5.8,94,0.00,CLR,,0.01,0.0,WeatherDisplay:10.37,2013-09-05 08:11:00,
2013-09-05 04:16:00,60.7,59.3,29.90,West,277,2.3,6.9,95,0.00,CLR,,0.01,0.0,WeatherDisplay:10.37,2013-09-05 08:16:00,
2013-09-05 04:21:00,60.6,59.2,29.90,West,263,4.0,6.0,95,0.00,CLR,,0.01,0.0,WeatherDisplay:10.37,2013-09-05 08:21:00,
2013-09-05 04:26:00,60.4,59.0,29.91,WNW,287,3.5,6.0,95,0.00,CLR,,0.01,0.0,WeatherDisplay:10.37,2013-09-05 08:26:00,
2013-09-05 04:31:00,60.3,58.9,29.91,NW,305,2.7,4.0,95,0.00,CLR,,0.01,0.0,WeatherDisplay:10.37,2013-09-05 08:31:00,
2013-09-05 04:36:00,60.2,58.8,29.92,WNW,297,2.2,5.0,95,0.00,CLR,,0.01,0.0,WeatherDisplay:10.37,2013-09-05 08:36:00,
2013-09-05 04:41:00,60.2,58.8,29.92,WNW,300,1.9,4.6,95,0.00,CLR,,0.01,0.0,WeatherDisplay:10.37,2013-09-05 08:41:00,
2013-09-05 04:46:00,60.2,58.8,29.92,WNW,285,2.0,5.8,95,0.00,CLR,,0.01,0.0,WeatherDisplay:10.37,2013-09-05 08:46:00,
2013-09-05 04:51:00,60.2,58.8,29.92,WNW,298,1.1,4.0,95,0.00,CLR,,0.01,0.0,WeatherDisplay:10.37,2013-09-05 08:51:00,
2013-09-05 04:56:00,60.1,58.7,29.92,WNW,302,2.5,4.6,95,0.00,CLR,,0.01,0.0,WeatherDisplay:10.37,2013-09-05 08:56:00,
2013-09-05 05:01:00,60.0,58.6,29.92,NW,321,2.6,5.8,95,0.00,CLR,,0.01,0.0,WeatherDisplay:10.37,2013-09-05 09:01:00,
2013-09-05 05:06:00,60.0,58.9,29.92,NW,322,2.5,4.0,96,0.00,CLR,,0.01,0.0,WeatherDisplay:10.37,2013-09-05 09:06:00,
2013-09-05 05:11:00,59.9,58.8,29.92,WNW,292,3.2,6.9,96,0.00,CLR,,0.01,0.0,WeatherDisplay:10.37,2013-09-05 09:11:00,
2013-09-05 05:16:00,59.5,58.1,29.92,NNW,337,1.8,3.5,95,0.00,CLR,,0.01,0.0,WeatherDisplay:10.37,2013-09-05 09:16:00,
2013-09-05 05:21:00,58.8,56.8,29.93,West,278,2.2,4.6,93,0.00,CLR,,0.01,0.0,WeatherDisplay:10.37,2013-09-05 09:21:00,
2013-09-05 05:26:00,58.2,55.3,29.93,North,9,3.3,6.9,90,0.00,CLR,,0.01,0.0,WeatherDisplay:10.37,2013-09-05 09:26:00,
2013-09-05 05:31:00,57.6,54.7,29.94,NW,322,2.2,4.6,90,0.00,CLR,,0.01,0.0,WeatherDisplay:10.37,2013-09-05 09:31:00,
2013-09-05 05:36:00,57.1,54.2,29.94,NNW,342,1.3,3.5,90,0.00,CLR,,0.01,0.0,WeatherDisplay:10.37,2013-09-05 09:36:00,
2013-09-05 05:41:00,56.7,54.1,29.94,NW,326,1.3,3.5,91,0.00,CLR,,0.01,0.0,WeatherDisplay:10.37,2013-09-05 09:41:00,
2013-09-05 05:46:00,56.4,53.8,29.95,NW,320,0.6,2.3,91,0.00,CLR,,0.01,0.0,WeatherDisplay:10.37,2013-09-05 09:46:00,
2013-09-05 05:51:00,56.2,53.9,29.95,WNW,296,1.2,3.5,92,0.00,CLR,,0.01,0.0,WeatherDisplay:10.37,2013-09-05 09:51:00,
2013-09-05 05:56:00,56.1,53.8,29.95,NNW,328,1.0,2.3,92,0.00,CLR,,0.01,0.0,WeatherDisplay:10.37,2013-09-05 09:56:00,
2013-09-05 06:01:00,55.9,53.6,29.96,WNW,292,1.2,3.5,92,0.00,OVC,,0.01,0.0,WeatherDisplay:10.37,2013-09-05 10:01:00,
2013-09-05 06:06:00,55.8,53.5,29.96,NW,313,0.0,1.2,92,0.00,OVC,,0.01,0.0,WeatherDisplay:10.37,2013-09-05 10:06:00,
2013-09-05 06:11:00,55.6,53.3,29.97,WNW,291,0.9,3.5,92,0.00,OVC,,0.01,0.0,WeatherDisplay:10.37,2013-09-05 10:11:00,
2013-09-05 06:16:00,55.5,53.2,29.98,WNW,286,0.2,3.5,92,0.00,OVC,,0.01,0.0,WeatherDisplay:10.37,2013-09-05 10:16:00,
2013-09-05 06:21:00,55.3,53.0,29.98,North,5,1.1,2.3,92,0.00,OVC,,0.01,0.0,WeatherDisplay:10.37,2013-09-05 10:21:00,
2013-09-05 06:26:00,55.2,52.9,29.98,WNW,290,0.5,2.3,92,0.00,OVC,,0.01,0.0,WeatherDisplay:10.37,2013-09-05 10:26:00,
2013-09-05 06:31:00,55.0,52.7,29.98,WNW,297,0.7,2.3,92,0.00,OVC,,0.01,0.0,WeatherDisplay:10.37,2013-09-05 10:31:00,
2013-09-05 06:36:00,54.8,52.5,29.98,NNW,342,0.5,1.2,92,0.00,OVC,,0.01,5.0,WeatherDisplay:10.37,2013-09-05 10:36:00,
2013-09-05 06:41:00,54.6,52.3,29.99,NW,304,0.2,2.3,92,0.00,OVC,,0.01,7.0,WeatherDisplay:10.37,2013-09-05 10:41:00,
2013-09-05 06:46:00,54.4,52.1,29.99,WNW,299,0.2,2.3,92,0.00,OVC,,0.01,12.0,WeatherDisplay:10.37,2013-09-05 10:46:00,
2013-09-05 06:51:00,54.2,51.9,29.99,NNE,18,0.0,0.0,92,0.00,OVC,,0.01,18.0,WeatherDisplay:10.37,2013-09-05 10:51:00,
2013-09-05 06:56:00,54.2,52.2,30.00,NNW,347,0.0,0.0,93,0.00,OVC,,0.01,23.0,WeatherDisplay:10.37,2013-09-05 10:56:00,
2013-09-05 07:01:00,54.2,52.2,30.00,NNW,348,0.4,1.2,93,0.00,OVC,,0.01,26.0,WeatherDisplay:10.37,2013-09-05 11:01:00,
2013-09-05 07:06:00,54.2,52.2,30.00,West,281,0.0,0.0,93,0.00,OVC,,0.01,30.0,WeatherDisplay:10.37,2013-09-05 11:06:00,
2013-09-05 07:11:00,54.2,52.2,30.00,North,11,0.5,3.0,93,0.00,CLR,,0.01,39.0,WeatherDisplay:10.37,2013-09-05 11:11:00,
2013-09-05 07:16:00,54.1,52.1,30.00,North,5,0.2,1.2,93,0.00,CLR,,0.01,39.0,WeatherDisplay:10.37,2013-09-05 11:16:00,
2013-09-05 07:21:00,54.1,52.1,30.00,North,5,0.0,1.2,93,0.00,CLR,,0.01,44.0,WeatherDisplay:10.37,2013-09-05 11:21:00,
2013-09-05 07:26:00,54.2,52.2,30.00,North,5,0.0,1.2,93,0.00,CLR,,0.01,42.0,WeatherDisplay:10.37,2013-09-05 11:26:00,
2013-09-05 07:31:00,54.2,52.2,30.00,North,5,0.0,0.0,93,0.00,CLR,,0.01,51.0,WeatherDisplay:10.37,2013-09-05 11:31:00,
2013-09-05 07:36:00,54.3,52.0,30.01,North,5,0.0,0.0,92,0.00,CLR,,0.01,47.0,WeatherDisplay:10.37,2013-09-05 11:36:00,
2013-09-05 07:41:00,54.4,52.4,30.00,North,5,0.0,0.0,93,0.00,FEW,,0.01,46.0,WeatherDisplay:10.37,2013-09-05 11:41:00,
2013-09-05 07:46:00,54.5,52.5,30.00,North,5,0.0,0.0,93,0.00,SCT,,0.01,49.0,WeatherDisplay:10.37,2013-09-05 11:46:00,
2013-09-05 07:51:00,54.5,52.2,30.00,North,355,0.0,0.0,92,0.00,SCT,,0.01,51.0,WeatherDisplay:10.37,2013-09-05 11:51:00,
2013-09-05 07:56:00,54.6,52.3,30.01,North,355,0.0,0.0,92,0.00,BKN,,0.01,39.0,WeatherDisplay:10.37,2013-09-05 11:56:00,
2013-09-05 08:01:00,54.6,52.3,30.01,North,355,0.0,0.0,92,0.00,BKN,,0.01,33.0,WeatherDisplay:10.37,2013-09-05 12:01:00,
2013-09-05 08:06:00,54.6,52.0,30.01,North,355,0.0,0.0,91,0.00,BKN,,0.01,39.0,WeatherDisplay:10.37,2013-09-05 12:06:00,
2013-09-05 08:11:00,54.6,52.0,30.01,North,355,0.0,0.0,91,0.00,BKN,,0.01,51.0,WeatherDisplay:10.37,2013-09-05 12:11:00,
2013-09-05 08:16:00,54.7,52.1,30.01,North,355,0.3,1.2,91,0.00,BKN,,0.01,77.0,WeatherDisplay:10.37,2013-09-05 12:16:00,
2013-09-05 08:21:00,54.8,51.9,30.01,North,355,0.0,0.0,90,0.00,BKN,,0.01,69.0,WeatherDisplay:10.37,2013-09-05 12:21:00,
2013-09-05 08:26:00,54.9,52.0,30.01,North,355,0.0,0.0,90,0.00,BKN,,0.01,77.0,WeatherDisplay:10.37,2013-09-05 12:26:00,
2013-09-05 08:31:00,54.9,51.4,30.02,NW,324,1.8,3.5,88,0.00,BKN,,0.01,109.0,WeatherDisplay:10.37,2013-09-05 12:31:00,
2013-09-05 08:36:00,55.0,51.5,30.02,NNW,329,0.6,2.3,88,0.00,SCT,,0.01,132.0,WeatherDisplay:10.37,2013-09-05 12:36:00,
2013-09-05 08:41:00,55.1,51.6,30.02,WNW,297,0.8,3.5,88,0.00,SCT,,0.01,123.0,WeatherDisplay:10.37,2013-09-05 12:41:00,
2013-09-05 08:46:00,55.2,52.0,30.02,NNE,33,0.8,4.0,89,0.00,SCT,,0.01,174.0,WeatherDisplay:10.37,2013-09-05 12:46:00,
2013-09-05 08:51:00,55.3,51.5,30.02,WNW,300,1.1,3.5,87,0.00,SCT,,0.01,181.0,WeatherDisplay:10.37,2013-09-05 12:51:00,
2013-09-05 08:56:00,55.5,52.0,30.02,NW,316,0.3,2.3,88,0.00,SCT,,0.01,163.0,WeatherDisplay:10.37,2013-09-05 12:56:00,
2013-09-05 09:01:00,55.5,51.7,30.03,ENE,65,0.3,3.5,87,0.00,SCT,,0.01,146.0,WeatherDisplay:10.37,2013-09-05 13:01:00,
2013-09-05 09:06:00,55.5,51.7,30.03,WNW,302,1.9,4.0,87,0.00,SCT,,0.01,441.0,WeatherDisplay:10.37,2013-09-05 13:06:00,
2013-09-05 09:11:00,56.2,52.1,30.03,North,355,0.5,2.3,86,0.00,CLR,,0.01,422.0,WeatherDisplay:10.37,2013-09-05 13:11:00,
2013-09-05 09:16:00,56.6,52.5,30.03,WNW,296,2.6,4.0,86,0.00,CLR,,0.01,445.0,WeatherDisplay:10.37,2013-09-05 13:16:00,
2013-09-05 09:21:00,56.9,52.4,30.03,WNW,296,2.4,4.6,85,0.00,CLR,,0.01,461.0,WeatherDisplay:10.37,2013-09-05 13:21:00,
2013-09-05 09:26:00,57.3,52.5,30.03,WNW,295,1.3,3.0,84,0.00,CLR,,0.01,473.0,WeatherDisplay:10.37,2013-09-05 13:26:00,
2013-09-05 09:31:00,57.6,52.1,30.03,NW,318,4.1,6.9,82,0.00,CLR,,0.01,485.0,WeatherDisplay:10.37,2013-09-05 13:31:00,
2013-09-05 09:36:00,57.8,53.0,30.04,WSW,244,1.3,5.0,84,0.00,CLR,,0.01,499.0,WeatherDisplay:10.37,2013-09-05 13:36:00,
2013-09-05 09:41:00,58.4,52.6,30.04,WNW,295,0.8,2.3,81,0.00,CLR,,0.01,513.0,WeatherDisplay:10.37,2013-09-05 13:41:00,
2013-09-05 09:46:00,58.5,52.0,30.04,NNW,343,1.4,3.5,79,0.00,CLR,,0.01,527.0,WeatherDisplay:10.37,2013-09-05 13:46:00,
2013-09-05 09:51:00,58.5,52.7,30.04,NNE,26,1.0,2.3,81,0.00,CLR,,0.01,543.0,WeatherDisplay:10.37,2013-09-05 13:51:00,
2013-09-05 09:56:00,58.8,52.0,30.04,NW,323,0.1,1.2,78,0.00,CLR,,0.01,555.0,WeatherDisplay:10.37,2013-09-05 13:56:00,
2013-09-05 10:01:00,58.8,51.6,30.04,West,275,2.7,4.0,77,0.00,CLR,,0.01,571.0,WeatherDisplay:10.37,2013-09-05 14:01:00,
2013-09-05 10:06:00,59.3,51.7,30.04,WNW,291,4.0,6.9,76,0.00,CLR,,0.01,580.0,WeatherDisplay:10.37,2013-09-05 14:06:00,
2013-09-05 10:11:00,59.4,51.5,30.04,NW,314,2.5,4.0,75,0.00,CLR,,0.01,596.0,WeatherDisplay:10.37,2013-09-05 14:11:00,
2013-09-05 10:16:00,59.9,51.2,30.05,WNW,296,3.6,7.0,73,0.00,CLR,,0.01,612.0,WeatherDisplay:10.37,2013-09-05 14:16:00,
2013-09-05 10:21:00,60.2,49.6,30.04,West,260,3.0,4.6,68,0.00,CLR,,0.01,624.0,WeatherDisplay:10.37,2013-09-05 14:21:00,
2013-09-05 10:26:00,60.2,49.6,30.05,NE,55,1.1,3.0,68,0.00,CLR,,0.01,636.0,WeatherDisplay:10.37,2013-09-05 14:26:00,
2013-09-05 10:31:00,60.4,49.8,30.05,NNW,347,2.9,5.8,68,0.00,CLR,,0.01,645.0,WeatherDisplay:10.37,2013-09-05 14:31:00,
2013-09-05 10:36:00,60.8,50.2,30.05,West,281,2.7,5.0,68,0.00,CLR,,0.01,657.0,WeatherDisplay:10.37,2013-09-05 14:36:00,
2013-09-05 10:41:00,61.1,50.5,30.05,WNW,302,1.4,3.5,68,0.00,CLR,,0.01,670.0,WeatherDisplay:10.37,2013-09-05 14:41:00,
2013-09-05 10:46:00,61.4,48.7,30.05,NNW,346,1.5,4.0,63,0.00,CLR,,0.01,684.0,WeatherDisplay:10.37,2013-09-05 14:46:00,
2013-09-05 10:51:00,61.6,49.7,30.04,NW,306,1.7,3.5,65,0.00,CLR,,0.01,689.0,WeatherDisplay:10.37,2013-09-05 14:51:00,
2013-09-05 10:56:00,61.8,48.6,30.04,NNE,20,2.2,6.0,62,0.00,CLR,,0.01,707.0,WeatherDisplay:10.37,2013-09-05 14:56:00,
2013-09-05 11:01:00,61.8,48.2,30.05,NNW,343,2.6,4.0,61,0.00,CLR,,0.01,715.0,WeatherDisplay:10.37,2013-09-05 15:01:00,
2013-09-05 11:06:00,61.7,45.4,30.05,NW,323,3.8,6.0,55,0.00,CLR,,0.01,724.0,WeatherDisplay:10.37,2013-09-05 15:06:00,
2013-09-05 11:11:00,62.0,48.0,30.05,WNW,296,1.6,3.0,60,0.00,CLR,,0.01,735.0,WeatherDisplay:10.37,2013-09-05 15:11:00,
2013-09-05 11:16:00,62.3,47.3,30.05,NW,313,3.0,7.0,58,0.00,CLR,,0.01,747.0,WeatherDisplay:10.37,2013-09-05 15:16:00,
2013-09-05 11:21:00,62.7,45.3,30.05,NNW,344,3.3,6.9,53,0.00,CLR,,0.01,763.0,WeatherDisplay:10.37,2013-09-05 15:21:00,
2013-09-05 11:26:00,62.8,47.3,30.05,WNW,292,3.1,5.8,57,0.00,CLR,,0.01,768.0,WeatherDisplay:10.37,2013-09-05 15:26:00,
2013-09-05 11:31:00,63.0,47.1,30.05,WSW,252,4.1,5.8,56,0.00,CLR,,0.01,793.0,WeatherDisplay:10.37,2013-09-05 15:31:00,
2013-09-05 11:36:00,62.9,47.4,30.05,WNW,293,3.3,4.6,57,0.00,CLR,,0.01,821.0,WeatherDisplay:10.37,2013-09-05 15:36:00,
2013-09-05 11:41:00,63.0,46.6,30.05,WNW,300,4.0,5.0,55,0.00,CLR,,0.01,879.0,WeatherDisplay:10.37,2013-09-05 15:41:00,
2013-09-05 11:46:00,63.2,46.8,30.05,WNW,288,3.5,5.0,55,0.00,CLR,,0.01,925.0,WeatherDisplay:10.37,2013-09-05 15:46:00,
2013-09-05 11:51:00,63.1,47.1,30.05,NW,313,2.5,5.0,56,0.00,CLR,,0.01,176.0,WeatherDisplay:10.37,2013-09-05 15:51:00,
2013-09-05 11:56:00,63.1,46.2,30.05,WNW,301,2.7,3.5,54,0.00,FEW,,0.01,991.0,WeatherDisplay:10.37,2013-09-05 15:56:00,
2013-09-05 12:01:00,63.4,47.9,30.05,WNW,295,2.0,4.6,57,0.00,CLR,,0.01,1042.0,WeatherDisplay:10.37,2013-09-05 16:01:00,
2013-09-05 12:06:00,63.0,45.1,30.05,WNW,288,3.0,5.8,52,0.00,FEW,,0.01,209.0,WeatherDisplay:10.37,2013-09-05 16:06:00,
2013-09-05 12:11:00,63.5,46.6,30.05,NNE,22,3.5,7.0,54,0.00,FEW,,0.01,990.0,WeatherDisplay:10.37,2013-09-05 16:11:00,
2013-09-05 12:16:00,63.9,45.4,30.05,NNW,342,3.7,6.0,51,0.00,CLR,,0.01,214.0,WeatherDisplay:10.37,2013-09-05 16:16:00,
2013-09-05 12:21:00,63.2,43.7,30.05,NW,317,2.0,6.9,49,0.00,FEW,,0.01,316.0,WeatherDisplay:10.37,2013-09-05 16:21:00,
2013-09-05 12:26:00,63.2,44.8,30.05,North,355,2.4,3.5,51,0.00,SCT,,0.01,234.0,WeatherDisplay:10.37,2013-09-05 16:26:00,
2013-09-05 12:31:00,63.3,44.9,30.05,North,355,3.4,8.1,51,0.00,SCT,,0.01,214.0,WeatherDisplay:10.37,2013-09-05 16:31:00,
2013-09-05 12:36:00,63.3,44.3,30.05,North,349,3.3,6.0,50,0.00,SCT,,0.01,1030.0,WeatherDisplay:10.37,2013-09-05 16:36:00,
2013-09-05 12:41:00,63.1,43.6,30.05,NNW,335,3.1,5.8,49,0.00,BKN,,0.01,265.0,WeatherDisplay:10.37,2013-09-05 16:41:00,
2013-09-05 12:46:00,62.7,43.3,30.05,NW,317,2.7,4.6,49,0.00,BKN,,0.01,248.0,WeatherDisplay:10.37,2013-09-05 16:46:00,
2013-09-05 12:51:00,63.5,44.5,30.05,NNW,344,2.4,4.0,50,0.00,SCT,,0.01,306.0,WeatherDisplay:10.37,2013-09-05 16:51:00,
2013-09-05 12:56:00,64.4,45.3,30.05,SW,234,3.8,8.1,50,0.00,FEW,,0.01,1007.0,WeatherDisplay:10.37,2013-09-05 16:56:00,
2013-09-05 13:01:00,64.9,43.6,30.05,WNW,300,4.5,7.0,46,0.00,CLR,,0.01,981.0,WeatherDisplay:10.37,2013-09-05 17:01:00,
2013-09-05 13:06:00,65.3,42.2,30.05,WNW,300,6.4,10.4,43,0.00,CLR,,0.01,993.0,WeatherDisplay:10.37,2013-09-05 17:06:00,
2013-09-05 13:11:00,64.8,42.9,30.05,NW,323,4.8,8.1,45,0.00,CLR,,0.01,178.0,WeatherDisplay:10.37,2013-09-05 17:11:00,
2013-09-05 13:16:00,64.4,42.6,30.05,West,278,4.9,9.0,45,0.00,CLR,,0.01,250.0,WeatherDisplay:10.37,2013-09-05 17:16:00,
2013-09-05 13:21:00,64.0,47.0,30.06,North,5,2.2,6.9,54,0.00,CLR,,0.01,1155.0,WeatherDisplay:10.37,2013-09-05 17:21:00,
2013-09-05 13:26:00,64.2,43.5,30.05,WNW,300,4.8,8.1,47,0.00,FEW,,0.01,230.0,WeatherDisplay:10.37,2013-09-05 17:26:00,
2013-09-05 13:31:00,64.5,46.5,30.06,NNW,335,4.2,6.9,52,0.00,FEW,,0.01,898.0,WeatherDisplay:10.37,2013-09-05 17:31:00,
2013-09-05 13:36:00,64.9,44.7,30.06,North,355,5.2,9.2,48,0.00,FEW,,0.01,912.0,WeatherDisplay:10.37,2013-09-05 17:36:00,
2013-09-05 13:41:00,65.0,43.7,30.06,NW,317,5.0,10.4,46,0.00,CLR,,0.01,983.0,WeatherDisplay:10.37,2013-09-05 17:41:00,
2013-09-05 13:46:00,64.5,44.9,30.06,WNW,300,5.7,9.2,49,0.00,CLR,,0.01,875.0,WeatherDisplay:10.37,2013-09-05 17:46:00,
2013-09-05 13:51:00,64.9,43.6,30.06,NW,309,4.3,8.1,46,0.00,CLR,,0.01,926.0,WeatherDisplay:10.37,2013-09-05 17:51:00,
2013-09-05 13:56:00,65.6,45.4,30.06,WNW,285,6.1,9.0,48,0.00,CLR,,0.01,960.0,WeatherDisplay:10.37,2013-09-05 17:56:00,
2013-09-05 14:01:00,65.4,44.6,30.06,North,360,3.3,9.2,47,0.00,CLR,,0.01,833.0,WeatherDisplay:10.37,2013-09-05 18:01:00,
2013-09-05 14:06:00,65.0,43.7,30.06,North,360,3.2,9.2,46,0.00,CLR,,0.01,891.0,WeatherDisplay:10.37,2013-09-05 18:06:00,
2013-09-05 14:11:00,65.2,42.7,30.06,WNW,285,4.8,10.4,44,0.00,CLR,,0.01,877.0,WeatherDisplay:10.37,2013-09-05 18:11:00,
2013-09-05 14:16:00,65.3,45.1,30.06,North,360,3.0,7.0,48,0.00,CLR,,0.01,893.0,WeatherDisplay:10.37,2013-09-05 18:16:00,
2013-09-05 14:21:00,65.2,42.7,30.06,WNW,290,4.6,11.5,44,0.00,CLR,,0.01,868.0,WeatherDisplay:10.37,2013-09-05 18:21:00,
2013-09-05 14:26:00,65.7,44.9,30.06,WNW,294,3.4,5.8,47,0.00,CLR,,0.01,844.0,WeatherDisplay:10.37,2013-09-05 18:26:00,
2013-09-05 14:31:00,65.7,45.5,30.06,West,265,3.5,8.0,48,0.00,CLR,,0.01,828.0,WeatherDisplay:10.37,2013-09-05 18:31:00,
2013-09-05 14:36:00,65.5,45.8,30.06,WNW,294,2.7,6.9,49,0.00,CLR,,0.01,879.0,WeatherDisplay:10.37,2013-09-05 18:36:00,
2013-09-05 14:41:00,65.5,45.3,30.06,NNW,342,5.3,13.8,48,0.00,CLR,,0.01,390.0,WeatherDisplay:10.37,2013-09-05 18:41:00,
2013-09-05 14:46:00,65.7,46.0,30.06,NNW,331,3.9,7.0,49,0.00,CLR,,0.01,819.0,WeatherDisplay:10.37,2013-09-05 18:46:00,
2013-09-05 14:51:00,65.7,46.0,30.06,NW,311,5.3,11.5,49,0.00,CLR,,0.01,819.0,WeatherDisplay:10.37,2013-09-05 18:51:00,
2013-09-05 14:56:00,65.9,45.6,30.06,NNW,328,4.8,8.1,48,0.00,CLR,,0.01,802.0,WeatherDisplay:10.37,2013-09-05 18:56:00,
2013-09-05 15:01:00,65.7,44.9,30.06,North,355,2.9,5.8,47,0.00,CLR,,0.01,768.0,WeatherDisplay:10.37,2013-09-05 19:01:00,
2013-09-05 15:06:00,65.6,44.8,30.06,WNW,303,4.3,6.9,47,0.00,CLR,,0.01,766.0,WeatherDisplay:10.37,2013-09-05 19:06:00,
2013-09-05 15:11:00,65.5,45.3,30.06,North,11,4.3,6.9,48,0.00,CLR,,0.01,765.0,WeatherDisplay:10.37,2013-09-05 19:11:00,
2013-09-05 15:16:00,65.1,43.8,30.06,NNE,27,4.9,6.9,46,0.00,CLR,,0.01,756.0,WeatherDisplay:10.37,2013-09-05 19:16:00,
2013-09-05 15:21:00,65.2,44.5,30.06,NW,314,6.6,11.0,47,0.00,CLR,,0.01,740.0,WeatherDisplay:10.37,2013-09-05 19:21:00,
2013-09-05 15:26:00,65.0,43.7,30.06,North,360,4.6,10.4,46,0.00,CLR,,0.01,731.0,WeatherDisplay:10.37,2013-09-05 19:26:00,
2013-09-05 15:31:00,64.9,44.7,30.06,NW,313,2.8,5.8,48,0.00,CLR,,0.01,710.0,WeatherDisplay:10.37,2013-09-05 19:31:00,
2013-09-05 15:36:00,65.2,44.5,30.06,NW,315,1.3,5.0,47,0.00,CLR,,0.01,693.0,WeatherDisplay:10.37,2013-09-05 19:36:00,
2013-09-05 15:41:00,65.3,42.8,30.06,West,277,2.8,9.2,44,0.00,CLR,,0.01,682.0,WeatherDisplay:10.37,2013-09-05 19:41:00,
2013-09-05 15:46:00,65.0,41.9,30.06,NW,307,6.0,10.4,43,0.00,CLR,,0.01,675.0,WeatherDisplay:10.37,2013-09-05 19:46:00,
2013-09-05 15:51:00,64.8,45.2,30.06,WNW,297,4.2,10.0,49,0.00,CLR,,0.01,686.0,WeatherDisplay:10.37,2013-09-05 19:51:00,
2013-09-05 15:56:00,64.8,42.9,30.06,NNW,348,6.5,10.4,45,0.00,CLR,,0.01,666.0,WeatherDisplay:10.37,2013-09-05 19:56:00,
2013-09-05 16:01:00,64.7,42.3,30.06,NW,317,4.4,9.0,44,0.00,CLR,,0.01,633.0,WeatherDisplay:10.37,2013-09-05 20:01:00,
2013-09-05 16:06:00,64.5,41.5,30.06,NNE,30,5.4,10.4,43,0.00,CLR,,0.01,617.0,WeatherDisplay:10.37,2013-09-05 20:06:00,
2013-09-05 16:11:00,64.7,44.0,30.06,NW,315,4.4,8.0,47,0.00,CLR,,0.01,605.0,WeatherDisplay:10.37,2013-09-05 20:11:00,
2013-09-05 16:16:00,64.5,40.3,30.06,NNW,334,4.1,9.2,41,0.00,CLR,,0.01,591.0,WeatherDisplay:10.37,2013-09-05 20:16:00,
2013-09-05 16:21:00,64.3,41.9,30.06,NNE,13,4.3,9.0,44,0.00,CLR,,0.01,580.0,WeatherDisplay:10.37,2013-09-05 20:21:00,
2013-09-05 16:26:00,64.1,41.1,30.07,West,281,2.9,5.8,43,0.00,CLR,,0.01,577.0,WeatherDisplay:10.37,2013-09-05 20:26:00,
2013-09-05 16:31:00,64.3,43.6,30.07,WNW,303,3.5,9.0,47,0.00,CLR,,0.01,550.0,WeatherDisplay:10.37,2013-09-05 20:31:00,
2013-09-05 16:36:00,64.5,42.1,30.07,NNW,344,3.8,10.4,44,0.00,CLR,,0.01,538.0,WeatherDisplay:10.37,2013-09-05 20:36:00,
2013-09-05 16:41:00,64.5,43.3,30.07,WNW,286,3.2,8.0,46,0.00,CLR,,0.01,519.0,WeatherDisplay:10.37,2013-09-05 20:41:00,
2013-09-05 16:46:00,64.3,43.1,30.07,WNW,286,3.8,10.4,46,0.00,CLR,,0.01,515.0,WeatherDisplay:10.37,2013-09-05 20:46:00,
2013-09-05 16:51:00,64.1,42.9,30.07,NNE,17,4.5,9.2,46,0.00,CLR,,0.01,533.0,WeatherDisplay:10.37,2013-09-05 20:51:00,
2013-09-05 16:56:00,63.5,41.8,30.07,WNW,293,4.0,11.0,45,0.00,CLR,,0.01,490.0,WeatherDisplay:10.37,2013-09-05 20:56:00,
2013-09-05 17:01:00,63.1,42.5,30.07,NNW,345,4.2,11.5,47,0.00,CLR,,0.01,471.0,WeatherDisplay:10.37,2013-09-05 21:01:00,
2013-09-05 17:06:00,63.3,42.2,30.08,WNW,292,4.9,9.2,46,0.00,CLR,,0.01,445.0,WeatherDisplay:10.37,2013-09-05 21:06:00,
2013-09-05 17:11:00,63.4,42.2,30.08,WNW,287,5.4,9.2,46,0.00,CLR,,0.01,427.0,WeatherDisplay:10.37,2013-09-05 21:11:00,
2013-09-05 17:16:00,63.3,41.6,30.08,WNW,290,4.9,7.0,45,0.00,CLR,,0.01,410.0,WeatherDisplay:10.37,2013-09-05 21:16:00,
2013-09-05 17:21:00,63.2,41.5,30.08,NW,315,6.2,8.1,45,0.00,CLR,,0.01,394.0,WeatherDisplay:10.37,2013-09-05 21:21:00,
2013-09-05 17:26:00,63.1,43.6,30.08,NW,323,3.7,6.0,49,0.00,CLR,,0.01,378.0,WeatherDisplay:10.37,2013-09-05 21:26:00,
2013-09-05 17:31:00,63.1,44.2,30.08,NW,326,1.7,3.0,50,0.00,CLR,,0.01,359.0,WeatherDisplay:10.37,2013-09-05 21:31:00,
2013-09-05 17:36:00,63.0,44.6,30.08,NW,304,2.6,4.6,51,0.00,CLR,,0.01,341.0,WeatherDisplay:10.37,2013-09-05 21:36:00,
2013-09-05 17:41:00,62.9,42.9,30.08,NW,308,5.8,10.0,48,0.00,CLR,,0.01,329.0,WeatherDisplay:10.37,2013-09-05 21:41:00,
2013-09-05 17:46:00,62.6,44.2,30.09,North,5,2.9,5.8,51,0.00,CLR,,0.01,309.0,WeatherDisplay:10.37,2013-09-05 21:46:00,
2013-09-05 17:51:00,62.4,44.0,30.09,WNW,292,3.0,9.0,51,0.00,CLR,,0.01,292.0,WeatherDisplay:10.37,2013-09-05 21:51:00,
2013-09-05 17:56:00,62.1,42.7,30.09,NNW,344,2.0,4.6,49,0.00,CLR,,0.01,272.0,WeatherDisplay:10.37,2013-09-05 21:56:00,
2013-09-05 18:01:00,62.1,43.7,30.09,WNW,289,3.4,7.0,51,0.00,CLR,,0.01,257.0,WeatherDisplay:10.37,2013-09-05 22:01:00,
2013-09-05 18:06:00,62.1,44.3,30.10,NW,321,1.8,4.0,52,0.00,CLR,,0.01,237.0,WeatherDisplay:10.37,2013-09-05 22:06:00,
2013-09-05 18:11:00,61.9,42.5,30.09,West,266,5.1,6.9,49,0.00,CLR,,0.01,218.0,WeatherDisplay:10.37,2013-09-05 22:11:00,
2013-09-05 18:16:00,61.6,42.8,30.10,WSW,249,3.3,5.0,50,0.00,CLR,,0.01,202.0,WeatherDisplay:10.37,2013-09-05 22:16:00,
2013-09-05 18:21:00,61.4,43.1,30.10,WSW,254,2.3,6.0,51,0.00,CLR,,0.01,181.0,WeatherDisplay:10.37,2013-09-05 22:21:00,
2013-09-05 18:26:00,61.1,42.3,30.10,WNW,292,3.0,5.8,50,0.00,FEW,,0.01,160.0,WeatherDisplay:10.37,2013-09-05 22:26:00,
2013-09-05 18:31:00,60.9,42.6,30.10,NW,309,2.9,5.0,51,0.00,FEW,,0.01,141.0,WeatherDisplay:10.37,2013-09-05 22:31:00,
2013-09-05 18:37:00,60.7,43.0,30.10,NW,324,2.1,3.5,52,0.00,SCT,,0.01,120.0,WeatherDisplay:10.37,2013-09-05 22:37:00,
2013-09-05 18:42:00,60.5,42.8,30.10,WNW,300,1.6,6.9,52,0.00,SCT,,0.01,100.0,WeatherDisplay:10.37,2013-09-05 22:42:00,
2013-09-05 18:47:00,60.4,43.2,30.11,NW,319,0.3,1.2,53,0.00,SCT,,0.01,83.0,WeatherDisplay:10.37,2013-09-05 22:47:00,
2013-09-05 18:52:00,60.2,44.0,30.11,NW,311,0.9,3.0,55,0.00,SCT,,0.01,70.0,WeatherDisplay:10.37,2013-09-05 22:52:00,
2013-09-05 18:57:00,59.9,43.7,30.11,West,261,1.6,2.3,55,0.00,BKN,,0.01,54.0,WeatherDisplay:10.37,2013-09-05 22:57:00,
2013-09-05 19:02:00,59.5,43.3,30.11,NW,322,1.6,3.5,55,0.00,BKN,,0.01,40.0,WeatherDisplay:10.37,2013-09-05 23:02:00,
2013-09-05 19:07:00,59.3,43.6,30.11,NW,304,0.4,2.3,56,0.00,BKN,,0.01,28.0,WeatherDisplay:10.37,2013-09-05 23:07:00,
2013-09-05 19:12:00,58.9,43.7,30.11,WNW,285,0.3,1.2,57,0.00,BKN,,0.01,16.0,WeatherDisplay:10.37,2013-09-05 23:12:00,
2013-09-05 19:17:00,58.5,42.8,30.11,WNW,294,3.2,4.6,56,0.00,BKN,,0.01,9.0,WeatherDisplay:10.37,2013-09-05 23:17:00,
2013-09-05 19:22:00,57.8,43.1,30.12,NW,315,0.7,1.2,58,0.00,BKN,,0.01,7.0,WeatherDisplay:10.37,2013-09-05 23:22:00,
2013-09-05 19:27:00,57.2,42.1,30.11,WNW,296,0.9,5.8,57,0.00,BKN,,0.01,5.0,WeatherDisplay:10.37,2013-09-05 23:27:00,
2013-09-05 19:32:00,56.8,42.2,30.12,WNW,292,0.0,1.2,58,0.00,OVC,,0.01,0.0,WeatherDisplay:10.37,2013-09-05 23:32:00,
2013-09-05 19:37:00,56.2,42.9,30.12,West,276,0.0,0.0,61,0.00,OVC,,0.01,0.0,WeatherDisplay:10.37,2013-09-05 23:37:00,
2013-09-05 19:42:00,55.6,43.2,30.12,WNW,290,0.0,0.0,63,0.00,OVC,,0.01,0.0,WeatherDisplay:10.37,2013-09-05 23:42:00,
2013-09-05 19:47:00,55.0,42.6,30.12,WNW,290,0.0,0.0,63,0.00,OVC,,0.01,0.0,WeatherDisplay:10.37,2013-09-05 23:47:00,
2013-09-05 19:52:00,54.4,42.5,30.13,WNW,291,0.0,0.0,64,0.00,OVC,,0.01,0.0,WeatherDisplay:10.37,2013-09-05 23:52:00,
2013-09-05 19:57:00,54.0,42.9,30.13,WNW,291,0.0,0.0,66,0.00,OVC,,0.01,0.0,WeatherDisplay:10.37,2013-09-05 23:57:00,
2013-09-05 20:02:00,53.6,43.3,30.13,WNW,291,0.0,0.0,68,0.00,CLR,,0.01,0.0,WeatherDisplay:10.37,2013-09-06 00:02:00,
2013-09-05 20:07:00,53.3,43.0,30.13,WNW,291,0.0,0.0,68,0.00,CLR,,0.01,0.0,WeatherDisplay:10.37,2013-09-06 00:07:00,
2013-09-05 20:12:00,53.0,43.1,30.13,WNW,291,0.0,0.0,69,0.00,CLR,,0.01,0.0,WeatherDisplay:10.37,2013-09-06 00:12:00,
2013-09-05 20:17:00,52.7,43.2,30.13,WNW,291,0.0,0.0,70,0.00,CLR,,0.01,0.0,WeatherDisplay:10.37,2013-09-06 00:17:00,
2013-09-05 20:22:00,52.4,43.3,30.14,WNW,291,0.0,0.0,71,0.00,CLR,,0.01,0.0,WeatherDisplay:10.37,2013-09-06 00:22:00,
2013-09-05 20:27:00,51.9,43.2,30.14,WNW,291,0.0,0.0,72,0.00,CLR,,0.01,0.0,WeatherDisplay:10.37,2013-09-06 00:27:00,
2013-09-05 20:32:00,51.7,43.0,30.14,WNW,291,0.1,1.0,72,0.00,CLR,,0.01,0.0,WeatherDisplay:10.37,2013-09-06 00:32:00,
2013-09-05 20:37:00,51.5,42.8,30.15,WNW,291,0.0,0.0,72,0.00,CLR,,0.01,0.0,WeatherDisplay:10.37,2013-09-06 00:37:00,
2013-09-05 20:42:00,51.3,42.6,30.15,NNE,23,0.5,2.3,72,0.00,CLR,,0.01,0.0,WeatherDisplay:10.37,2013-09-06 00:42:00,
2013-09-05 20:47:00,51.3,42.6,30.15,NNE,23,0.0,1.2,72,0.00,CLR,,0.01,0.0,WeatherDisplay:10.37,2013-09-06 00:47:00,
2013-09-05 20:52:00,51.1,42.7,30.15,NNE,23,0.0,0.0,73,0.00,CLR,,0.01,0.0,WeatherDisplay:10.37,2013-09-06 00:52:00,
2013-09-05 20:57:00,51.0,43.0,30.15,NNE,23,0.0,0.0,74,0.00,CLR,,0.01,0.0,WeatherDisplay:10.37,2013-09-06 00:57:00,
2013-09-05 21:02:00,50.8,42.8,30.15,NNE,23,0.0,0.0,74,0.00,CLR,,0.01,0.0,WeatherDisplay:10.37,2013-09-06 01:02:00,
2013-09-05 21:07:00,50.6,43.0,30.15,NNE,23,0.0,0.0,75,0.00,CLR,,0.01,0.0,WeatherDisplay:10.37,2013-09-06 01:07:00,
2013-09-05 21:12:00,50.5,43.2,30.15,NNE,23,0.0,0.0,76,0.00,CLR,,0.01,0.0,WeatherDisplay:10.37,2013-09-06 01:12:00,
2013-09-05 21:17:00,50.3,43.0,30.15,NNE,23,0.0,0.0,76,0.00,CLR,,0.01,0.0,WeatherDisplay:10.37,2013-09-06 01:17:00,
2013-09-05 21:22:00,50.0,43.1,30.16,NNE,23,0.0,0.0,77,0.00,CLR,,0.01,0.0,WeatherDisplay:10.37,2013-09-06 01:22:00,
2013-09-05 21:27:00,49.7,43.5,30.16,NNE,23,0.0,0.0,79,0.00,CLR,,0.01,0.0,WeatherDisplay:10.37,2013-09-06 01:27:00,
2013-09-05 21:32:00,49.4,43.8,30.16,NNE,23,0.0,0.0,81,0.00,CLR,,0.01,0.0,WeatherDisplay:10.37,2013-09-06 01:32:00,
2013-09-05 21:37:00,49.0,43.4,30.16,NNE,23,0.0,0.0,81,0.00,CLR,,0.01,0.0,WeatherDisplay:10.37,2013-09-06 01:37:00,
2013-09-05 21:42:00,48.8,43.5,30.16,NNE,23,0.0,0.0,82,0.00,CLR,,0.01,0.0,WeatherDisplay:10.37,2013-09-06 01:42:00,
2013-09-05 21:47:00,48.7,43.5,30.17,NNE,23,0.2,1.0,82,0.00,CLR,,0.01,0.0,WeatherDisplay:10.37,2013-09-06 01:47:00,
2013-09-05 21:52:00,48.5,43.3,30.17,NNE,23,0.0,0.0,82,0.00,CLR,,0.01,0.0,WeatherDisplay:10.37,2013-09-06 01:52:00,
2013-09-05 21:57:00,48.4,43.5,30.17,NNE,23,0.1,1.0,83,0.00,CLR,,0.01,0.0,WeatherDisplay:10.37,2013-09-06 01:57:00,
2013-09-05 22:02:00,48.1,43.2,30.17,NNE,23,0.0,0.0,83,0.00,CLR,,0.01,0.0,WeatherDisplay:10.37,2013-09-06 02:02:00,
2013-09-05 22:07:00,47.6,43.3,30.17,NNE,26,0.2,1.2,85,0.00,CLR,,0.01,0.0,WeatherDisplay:10.37,2013-09-06 02:07:00,
2013-09-05 22:12:00,47.0,43.0,30.17,NNE,26,0.0,0.0,86,0.00,CLR,,0.01,0.0,WeatherDisplay:10.37,2013-09-06 02:12:00,
2013-09-05 22:17:00,46.4,43.0,30.17,NNE,26,0.0,0.0,88,0.00,CLR,,0.01,0.0,WeatherDisplay:10.37,2013-09-06 02:17:00,
2013-09-05 22:22:00,46.2,42.8,30.17,NNE,26,0.0,1.0,88,0.00,CLR,,0.01,0.0,WeatherDisplay:10.37,2013-09-06 02:22:00,
2013-09-05 22:27:00,46.1,42.7,30.18,NNE,26,0.0,0.0,88,0.00,CLR,,0.01,0.0,WeatherDisplay:10.37,2013-09-06 02:27:00,
2013-09-05 22:32:00,46.0,42.6,30.18,NNE,26,0.0,0.0,88,0.00,CLR,,0.01,0.0,WeatherDisplay:10.37,2013-09-06 02:32:00,
2013-09-05 22:37:00,46.0,42.6,30.18,NE,43,0.4,1.2,88,0.00,CLR,,0.01,0.0,WeatherDisplay:10.37,2013-09-06 02:37:00,
2013-09-05 22:42:00,46.0,42.9,30.18,NE,53,0.3,1.2,89,0.00,CLR,,0.01,0.0,WeatherDisplay:10.37,2013-09-06 02:42:00,
2013-09-05 22:47:00,45.9,42.8,30.18,NE,53,0.0,1.2,89,0.00,CLR,,0.01,0.0,WeatherDisplay:10.37,2013-09-06 02:47:00,
2013-09-05 22:52:00,45.8,42.7,30.18,ENE,60,0.5,2.3,89,0.00,CLR,,0.01,0.0,WeatherDisplay:10.37,2013-09-06 02:52:00,
2013-09-05 22:57:00,45.6,42.3,30.19,ENE,62,0.4,2.0,88,0.00,CLR,,0.01,0.0,WeatherDisplay:10.37,2013-09-06 02:57:00,
2013-09-05 23:02:00,45.5,42.4,30.19,ENE,71,0.6,2.3,89,0.00,CLR,,0.01,0.0,WeatherDisplay:10.37,2013-09-06 03:02:00,
2013-09-05 23:07:00,45.4,42.3,30.19,ENE,71,0.2,2.3,89,0.00,CLR,,0.01,0.0,WeatherDisplay:10.37,2013-09-06 03:07:00,
2013-09-05 23:12:00,45.3,42.2,30.19,ENE,71,0.0,0.0,89,0.00,CLR,,0.01,0.0,WeatherDisplay:10.37,2013-09-06 03:12:00,
2013-09-05 23:17:00,45.1,42.1,30.18,ENE,71,0.1,2.3,89,0.00,CLR,,0.01,0.0,WeatherDisplay:10.37,2013-09-06 03:17:00,
2013-09-05 23:22:00,44.9,41.9,30.19,ENE,71,0.1,1.2,89,0.00,CLR,,0.01,0.0,WeatherDisplay:10.37,2013-09-06 03:22:00,
2013-09-05 23:27:00,44.8,42.0,30.18,ENE,71,0.1,1.2,90,0.00,CLR,,0.01,0.0,WeatherDisplay:10.37,2013-09-06 03:27:00,
2013-09-05 23:32:00,44.6,41.8,30.19,ENE,71,0.0,1.2,90,0.00,CLR,,0.01,0.0,WeatherDisplay:10.37,2013-09-06 03:32:00,
2013-09-05 23:37:00,44.5,41.7,30.19,ENE,71,0.0,0.0,90,0.00,CLR,,0.01,0.0,WeatherDisplay:10.37,2013-09-06 03:37:00,
2013-09-05 23:42:00,44.2,41.7,30.18,ENE,78,1.1,2.0,91,0.00,CLR,,0.01,0.0,WeatherDisplay:10.37,2013-09-06 03:42:00,
2013-09-05 23:47:00,44.2,41.7,30.18,East,88,1.2,2.3,91,0.00,CLR,,0.01,0.0,WeatherDisplay:10.37,2013-09-06 03:47:00,
2013-09-05 23:52:00,44.1,41.6,30.18,East,88,0.2,1.0,91,0.00,CLR,,0.01,0.0,WeatherDisplay:10.37,2013-09-06 03:52:00,
2013-09-05 23:57:00,44.1,41.6,30.18,East,88,0.1,1.2,91,0.00,CLR,,0.01,0.0,WeatherDisplay:10.37,2013-09-06 03:57:00,